QBA65Y KBOS-CYYZ
Flight info
| Callsign | QBA65Y |
|---|---|
| Flight time | 1h 22m |
| Altitude | 38000 |
| Route | HYLND7 HYLND DCT CAM Q822 GONZZ DCT WOZEE LINNG3 |
| Aircraft | B736/M-SDE2E3FGHIRWXY/LB1 |
Departure
| Time | 2026-05-07 23:51 |
|---|---|
| Airport | Boston Logan International Airport (KBOS) |
Arrival
| Time | 2026-05-08 01:13 |
|---|---|
| Airport | Toronto Pearson International Airport (CYYZ) |
| Time | Latitude | Longitude | Altitude | Speed | Heading |
|---|---|---|---|---|---|
| 2026-05-07 23:03 | 42.36444 | -71.02298 | 27 ft | 0 kts | 80° |
| 2026-05-07 23:35 | 42.36442 | -71.02314 | 29 ft | 4 kts | 85° |
| 2026-05-07 23:35 | 42.36444 | -71.02349 | 27 ft | 4 kts | 116° |
| 2026-05-07 23:36 | 42.36459 | -71.02371 | 27 ft | 4 kts | 176° |
| 2026-05-07 23:36 | 42.36464 | -71.02371 | 26 ft | 0 kts | 182° |
| 2026-05-07 23:38 | 42.36457 | -71.02372 | 24 ft | 2 kts | 182° |
| 2026-05-07 23:39 | 42.36424 | -71.02366 | 28 ft | 6 kts | 163° |
| 2026-05-07 23:39 | 42.36385 | -71.02341 | 27 ft | 6 kts | 154° |
| 2026-05-07 23:39 | 42.36343 | -71.02334 | 26 ft | 7 kts | 184° |
| 2026-05-07 23:39 | 42.36292 | -71.02339 | 26 ft | 8 kts | 184° |
| 2026-05-07 23:40 | 42.36238 | -71.02344 | 26 ft | 8 kts | 184° |
| 2026-05-07 23:40 | 42.36199 | -71.02348 | 25 ft | 0 kts | 184° |
| 2026-05-07 23:41 | 42.36198 | -71.02348 | 25 ft | 0 kts | 184° |
| 2026-05-07 23:41 | 42.36163 | -71.02328 | 24 ft | 10 kts | 141° |
| 2026-05-07 23:41 | 42.36112 | -71.02254 | 27 ft | 11 kts | 126° |
| 2026-05-07 23:41 | 42.36070 | -71.02163 | 26 ft | 13 kts | 121° |
| 2026-05-07 23:42 | 42.36020 | -71.02048 | 26 ft | 16 kts | 121° |
| 2026-05-07 23:42 | 42.35964 | -71.01922 | 24 ft | 15 kts | 121° |
| 2026-05-07 23:42 | 42.35917 | -71.01796 | 25 ft | 15 kts | 108° |
| 2026-05-07 23:42 | 42.35897 | -71.01663 | 24 ft | 14 kts | 101° |
| 2026-05-07 23:43 | 42.35909 | -71.01544 | 26 ft | 14 kts | 37° |
| 2026-05-07 23:43 | 42.35995 | -71.01499 | 26 ft | 13 kts | 20° |
| 2026-05-07 23:43 | 42.36081 | -71.01457 | 24 ft | 14 kts | 19° |
| 2026-05-07 23:43 | 42.36177 | -71.01411 | 25 ft | 15 kts | 19° |
| 2026-05-07 23:44 | 42.36278 | -71.01362 | 25 ft | 16 kts | 19° |
| 2026-05-07 23:44 | 42.36311 | -71.01264 | 24 ft | 14 kts | 126° |
| 2026-05-07 23:44 | 42.36263 | -71.01157 | 27 ft | 13 kts | 116° |
| 2026-05-07 23:44 | 42.36227 | -71.01046 | 28 ft | 13 kts | 114° |
| 2026-05-07 23:45 | 42.36191 | -71.00938 | 27 ft | 12 kts | 114° |
| 2026-05-07 23:45 | 42.36161 | -71.00849 | 27 ft | 7 kts | 114° |
| 2026-05-07 23:45 | 42.36152 | -71.00820 | 27 ft | 0 kts | 114° |
| 2026-05-07 23:46 | 42.36151 | -71.00819 | 27 ft | 1 kts | 114° |
| 2026-05-07 23:46 | 42.36137 | -71.00775 | 26 ft | 11 kts | 114° |
| 2026-05-07 23:46 | 42.36098 | -71.00632 | 27 ft | 18 kts | 108° |
| 2026-05-07 23:46 | 42.36056 | -71.00467 | 28 ft | 18 kts | 109° |
| 2026-05-07 23:47 | 42.36016 | -71.00307 | 24 ft | 18 kts | 109° |
| 2026-05-07 23:47 | 42.35977 | -71.00153 | 25 ft | 17 kts | 111° |
| 2026-05-07 23:47 | 42.35910 | -71.00023 | 26 ft | 18 kts | 135° |
| 2026-05-07 23:47 | 42.35816 | -70.99895 | 26 ft | 20 kts | 135° |
| 2026-05-07 23:48 | 42.35717 | -70.99763 | 24 ft | 20 kts | 135° |
| 2026-05-07 23:48 | 42.35621 | -70.99635 | 24 ft | 19 kts | 135° |
| 2026-05-07 23:48 | 42.35529 | -70.99512 | 26 ft | 16 kts | 135° |
| 2026-05-07 23:48 | 42.35489 | -70.99404 | 24 ft | 9 kts | 79° |
| 2026-05-07 23:49 | 42.35492 | -70.99387 | 24 ft | 0 kts | 76° |
| 2026-05-07 23:49 | 42.35493 | -70.99384 | 24 ft | 1 kts | 76° |
| 2026-05-07 23:49 | 42.35502 | -70.99329 | 29 ft | 9 kts | 77° |
| 2026-05-07 23:50 | 42.35536 | -70.99269 | 26 ft | 9 kts | 356° |
| 2026-05-07 23:50 | 42.35577 | -70.99316 | 24 ft | 7 kts | 316° |
| 2026-05-07 23:50 | 42.35660 | -70.99427 | 24 ft | 44 kts | 315° |
| 2026-05-07 23:50 | 42.36074 | -70.99982 | 22 ft | 120 kts | 315° |
| 2026-05-07 23:51 | 42.36787 | -71.00916 | 296 ft | 155 kts | 313° |
| 2026-05-07 23:51 | 42.37595 | -71.01984 | 981 ft | 168 kts | 314° |
| 2026-05-07 23:51 | 42.38422 | -71.03102 | 1868 ft | 173 kts | 307° |
| 2026-05-07 23:51 | 42.39032 | -71.04569 | 2579 ft | 184 kts | 297° |
| 2026-05-07 23:52 | 42.39662 | -71.06092 | 3401 ft | 187 kts | 300° |
| 2026-05-07 23:52 | 42.40337 | -71.07674 | 3981 ft | 207 kts | 300° |
| 2026-05-07 23:52 | 42.41247 | -71.09367 | 4279 ft | 240 kts | 317° |
| 2026-05-07 23:52 | 42.42646 | -71.10693 | 5053 ft | 252 kts | 332° |
| 2026-05-07 23:53 | 42.44282 | -71.11613 | 5692 ft | 256 kts | 336° |
| 2026-05-07 23:53 | 42.45954 | -71.12478 | 6005 ft | 259 kts | 336° |
| 2026-05-07 23:53 | 42.47645 | -71.13369 | 5986 ft | 261 kts | 336° |
| 2026-05-07 23:53 | 42.49324 | -71.14270 | 6001 ft | 258 kts | 336° |
| 2026-05-07 23:54 | 42.50994 | -71.15176 | 6013 ft | 258 kts | 336° |
| 2026-05-07 23:54 | 42.52707 | -71.16009 | 6411 ft | 265 kts | 339° |
| 2026-05-07 23:54 | 42.54447 | -71.16790 | 7485 ft | 263 kts | 338° |
| 2026-05-07 23:54 | 42.56196 | -71.17568 | 8491 ft | 266 kts | 338° |
| 2026-05-07 23:55 | 42.57965 | -71.18360 | 9451 ft | 270 kts | 337° |
| 2026-05-07 23:55 | 42.59762 | -71.19169 | 10322 ft | 275 kts | 336° |
| 2026-05-07 23:55 | 42.61653 | -71.20029 | 10650 ft | 301 kts | 336° |
| 2026-05-07 23:55 | 42.63728 | -71.20978 | 10858 ft | 328 kts | 336° |
| 2026-05-07 23:56 | 42.65951 | -71.21987 | 11302 ft | 344 kts | 336° |
| 2026-05-07 23:56 | 42.68242 | -71.23020 | 12104 ft | 349 kts | 335° |
| 2026-05-07 23:56 | 42.70558 | -71.24067 | 12941 ft | 354 kts | 335° |
| 2026-05-07 23:56 | 42.72914 | -71.25139 | 13713 ft | 360 kts | 334° |
| 2026-05-07 23:57 | 42.75255 | -71.26369 | 14383 ft | 359 kts | 323° |
| 2026-05-07 23:57 | 42.77113 | -71.28511 | 15101 ft | 347 kts | 302° |
| 2026-05-07 23:57 | 42.78334 | -71.31248 | 15911 ft | 340 kts | 287° |
| 2026-05-07 23:57 | 42.78955 | -71.34323 | 16739 ft | 335 kts | 275° |
| 2026-05-07 23:58 | 42.79330 | -71.37463 | 17571 ft | 337 kts | 273° |
| 2026-05-07 23:58 | 42.79664 | -71.40641 | 18340 ft | 340 kts | 272° |
| 2026-05-07 23:58 | 42.79990 | -71.43840 | 19022 ft | 343 kts | 272° |
| 2026-05-07 23:58 | 42.80323 | -71.47079 | 19716 ft | 346 kts | 272° |
| 2026-05-07 23:59 | 42.80665 | -71.50345 | 20394 ft | 350 kts | 272° |
| 2026-05-07 23:59 | 42.81015 | -71.53634 | 21074 ft | 353 kts | 272° |
| 2026-05-07 23:59 | 42.81371 | -71.56948 | 21770 ft | 356 kts | 272° |
| 2026-05-07 23:59 | 42.81733 | -71.60304 | 22397 ft | 360 kts | 272° |
| 2026-05-08 00:00 | 42.82101 | -71.63691 | 23021 ft | 363 kts | 272° |
| 2026-05-08 00:00 | 42.82472 | -71.67110 | 23607 ft | 367 kts | 272° |
| 2026-05-08 00:00 | 42.82845 | -71.70557 | 24141 ft | 369 kts | 272° |
| 2026-05-08 00:00 | 42.83218 | -71.73998 | 24665 ft | 372 kts | 272° |
| 2026-05-08 00:01 | 42.83596 | -71.77495 | 25199 ft | 375 kts | 272° |
| 2026-05-08 00:01 | 42.83975 | -71.81017 | 25702 ft | 378 kts | 272° |
| 2026-05-08 00:01 | 42.84356 | -71.84573 | 26195 ft | 381 kts | 272° |
| 2026-05-08 00:01 | 42.84740 | -71.88158 | 26674 ft | 383 kts | 272° |
| 2026-05-08 00:02 | 42.85124 | -71.91760 | 27203 ft | 386 kts | 272° |
| 2026-05-08 00:02 | 42.85510 | -71.95381 | 27800 ft | 385 kts | 272° |
| 2026-05-08 00:02 | 42.85895 | -71.99000 | 28279 ft | 387 kts | 272° |
| 2026-05-08 00:02 | 42.86279 | -72.02641 | 28668 ft | 391 kts | 272° |
| 2026-05-08 00:03 | 42.86667 | -72.06328 | 29052 ft | 394 kts | 272° |
| 2026-05-08 00:03 | 42.87056 | -72.10041 | 29436 ft | 397 kts | 272° |
| 2026-05-08 00:03 | 42.87446 | -72.13763 | 29961 ft | 396 kts | 272° |
| 2026-05-08 00:03 | 42.87835 | -72.17461 | 30575 ft | 392 kts | 272° |
| 2026-05-08 00:04 | 42.88218 | -72.21123 | 31122 ft | 390 kts | 272° |
| 2026-05-08 00:04 | 42.88598 | -72.24785 | 31548 ft | 390 kts | 272° |
| 2026-05-08 00:04 | 42.88976 | -72.28439 | 32103 ft | 387 kts | 272° |
| 2026-05-08 00:04 | 42.89350 | -72.32054 | 32722 ft | 383 kts | 272° |
| 2026-05-08 00:05 | 42.89719 | -72.35645 | 33118 ft | 383 kts | 272° |
| 2026-05-08 00:05 | 42.90086 | -72.39249 | 33465 ft | 384 kts | 272° |
| 2026-05-08 00:05 | 42.90454 | -72.42861 | 33852 ft | 384 kts | 272° |
| 2026-05-08 00:05 | 42.90820 | -72.46465 | 34204 ft | 383 kts | 272° |
| 2026-05-08 00:06 | 42.91185 | -72.50064 | 34481 ft | 384 kts | 272° |
| 2026-05-08 00:06 | 42.91544 | -72.53631 | 34743 ft | 385 kts | 272° |
| 2026-05-08 00:06 | 42.91908 | -72.57248 | 35031 ft | 385 kts | 272° |
| 2026-05-08 00:06 | 42.92276 | -72.60912 | 35349 ft | 385 kts | 272° |
| 2026-05-08 00:07 | 42.92638 | -72.64531 | 35626 ft | 385 kts | 272° |
| 2026-05-08 00:07 | 42.92995 | -72.68100 | 35901 ft | 385 kts | 272° |
| 2026-05-08 00:07 | 42.93355 | -72.71727 | 36138 ft | 386 kts | 272° |
| 2026-05-08 00:07 | 42.93682 | -72.75032 | 36330 ft | 387 kts | 272° |
| 2026-05-08 00:08 | 42.94018 | -72.78427 | 36564 ft | 387 kts | 272° |
| 2026-05-08 00:08 | 42.94377 | -72.82069 | 36820 ft | 387 kts | 272° |
| 2026-05-08 00:08 | 42.94735 | -72.85714 | 37058 ft | 388 kts | 272° |
| 2026-05-08 00:08 | 42.95092 | -72.89367 | 37290 ft | 389 kts | 272° |
| 2026-05-08 00:09 | 42.95448 | -72.93024 | 37505 ft | 389 kts | 272° |
| 2026-05-08 00:09 | 42.95804 | -72.96686 | 37814 ft | 389 kts | 272° |
| 2026-05-08 00:09 | 42.96519 | -73.04096 | 37852 ft | 395 kts | 272° |
| 2026-05-08 00:10 | 42.97232 | -73.11501 | 37851 ft | 391 kts | 272° |
| 2026-05-08 00:10 | 42.97933 | -73.18837 | 37847 ft | 388 kts | 272° |
| 2026-05-08 00:11 | 42.98624 | -73.26129 | 37812 ft | 386 kts | 272° |
| 2026-05-08 00:11 | 42.99305 | -73.33373 | 37862 ft | 384 kts | 272° |
| 2026-05-08 00:12 | 42.99610 | -73.40565 | 37859 ft | 381 kts | 268° |
| 2026-05-08 00:12 | 42.99765 | -73.47806 | 37864 ft | 382 kts | 268° |
| 2026-05-08 00:13 | 42.99923 | -73.55076 | 37866 ft | 384 kts | 268° |
| 2026-05-08 00:13 | 43.00090 | -73.62384 | 37862 ft | 386 kts | 268° |
| 2026-05-08 00:14 | 43.00259 | -73.69735 | 37875 ft | 388 kts | 268° |
| 2026-05-08 00:14 | 43.00426 | -73.77106 | 37871 ft | 389 kts | 268° |
| 2026-05-08 00:15 | 43.00588 | -73.84441 | 37881 ft | 389 kts | 268° |
| 2026-05-08 00:15 | 43.00745 | -73.91816 | 37874 ft | 388 kts | 268° |
| 2026-05-08 00:16 | 43.00897 | -73.99177 | 37885 ft | 387 kts | 268° |
| 2026-05-08 00:16 | 43.01044 | -74.06522 | 37892 ft | 386 kts | 268° |
| 2026-05-08 00:17 | 43.01186 | -74.13859 | 37888 ft | 386 kts | 268° |
| 2026-05-08 00:17 | 43.01324 | -74.21194 | 37887 ft | 386 kts | 268° |
| 2026-05-08 00:18 | 43.01491 | -74.28533 | 37891 ft | 387 kts | 269° |
| 2026-05-08 00:18 | 43.01829 | -74.35874 | 37920 ft | 387 kts | 270° |
| 2026-05-08 00:19 | 43.02187 | -74.43236 | 37905 ft | 389 kts | 270° |
| 2026-05-08 00:19 | 43.02525 | -74.50620 | 37907 ft | 390 kts | 269° |
| 2026-05-08 00:20 | 43.02850 | -74.58046 | 37900 ft | 392 kts | 269° |
| 2026-05-08 00:20 | 43.03168 | -74.65491 | 37906 ft | 393 kts | 269° |
| 2026-05-08 00:21 | 43.03480 | -74.72910 | 37910 ft | 394 kts | 269° |
| 2026-05-08 00:21 | 43.03790 | -74.80390 | 37907 ft | 394 kts | 269° |
| 2026-05-08 00:22 | 43.04096 | -74.87881 | 37902 ft | 394 kts | 269° |
| 2026-05-08 00:22 | 43.04346 | -74.94103 | 37911 ft | 394 kts | 269° |
| 2026-05-08 00:23 | 43.04641 | -75.01569 | 37903 ft | 393 kts | 269° |
| 2026-05-08 00:23 | 43.04932 | -75.09039 | 37907 ft | 393 kts | 269° |
| 2026-05-08 00:24 | 43.05217 | -75.16480 | 37898 ft | 392 kts | 269° |
| 2026-05-08 00:24 | 43.05497 | -75.23913 | 37908 ft | 391 kts | 269° |
| 2026-05-08 00:25 | 43.05766 | -75.31321 | 37905 ft | 390 kts | 269° |
| 2026-05-08 00:25 | 43.05980 | -75.38721 | 37910 ft | 389 kts | 268° |
| 2026-05-08 00:26 | 43.06178 | -75.46117 | 37917 ft | 389 kts | 269° |
| 2026-05-08 00:26 | 43.06374 | -75.53497 | 37911 ft | 390 kts | 269° |
| 2026-05-08 00:27 | 43.06570 | -75.60890 | 37912 ft | 390 kts | 269° |
| 2026-05-08 00:27 | 43.06761 | -75.68267 | 37906 ft | 391 kts | 269° |
| 2026-05-08 00:28 | 43.06857 | -75.72028 | 37752 ft | 389 kts | 269° |
| 2026-05-08 00:28 | 43.06951 | -75.75669 | 37476 ft | 378 kts | 268° |
| 2026-05-08 00:28 | 43.07040 | -75.79170 | 37217 ft | 369 kts | 268° |
| 2026-05-08 00:28 | 43.07127 | -75.82665 | 36624 ft | 367 kts | 269° |
| 2026-05-08 00:29 | 43.07210 | -75.86156 | 35989 ft | 368 kts | 268° |
| 2026-05-08 00:29 | 43.07293 | -75.89647 | 35369 ft | 368 kts | 268° |
| 2026-05-08 00:29 | 43.07374 | -75.93141 | 34765 ft | 367 kts | 268° |
| 2026-05-08 00:29 | 43.07455 | -75.96621 | 34187 ft | 366 kts | 268° |
| 2026-05-08 00:30 | 43.07535 | -76.00095 | 33553 ft | 365 kts | 268° |
| 2026-05-08 00:30 | 43.07613 | -76.03549 | 32880 ft | 363 kts | 268° |
| 2026-05-08 00:30 | 43.07691 | -76.06986 | 32268 ft | 360 kts | 268° |
| 2026-05-08 00:30 | 43.07767 | -76.10398 | 32085 ft | 360 kts | 268° |
| 2026-05-08 00:31 | 43.07841 | -76.13847 | 31969 ft | 363 kts | 268° |
| 2026-05-08 00:31 | 43.07914 | -76.17315 | 31959 ft | 369 kts | 268° |
| 2026-05-08 00:31 | 43.08062 | -76.24362 | 31916 ft | 369 kts | 268° |
| 2026-05-08 00:32 | 43.08207 | -76.31318 | 31918 ft | 366 kts | 268° |
| 2026-05-08 00:32 | 43.08345 | -76.38290 | 31918 ft | 368 kts | 268° |
| 2026-05-08 00:33 | 43.08479 | -76.45298 | 31920 ft | 369 kts | 268° |
| 2026-05-08 00:33 | 43.08609 | -76.52266 | 31935 ft | 370 kts | 268° |
| 2026-05-08 00:34 | 43.08737 | -76.59274 | 31929 ft | 371 kts | 268° |
| 2026-05-08 00:34 | 43.08859 | -76.66282 | 31926 ft | 371 kts | 268° |
| 2026-05-08 00:35 | 43.08699 | -76.72905 | 31934 ft | 369 kts | 263° |
| 2026-05-08 00:35 | 43.08204 | -76.79895 | 31927 ft | 369 kts | 263° |
| 2026-05-08 00:36 | 43.07694 | -76.86883 | 31961 ft | 369 kts | 263° |
| 2026-05-08 00:36 | 43.07200 | -76.93869 | 31924 ft | 368 kts | 263° |
| 2026-05-08 00:37 | 43.06715 | -77.00821 | 31933 ft | 366 kts | 263° |
| 2026-05-08 00:38 | 43.05989 | -77.11196 | 31938 ft | 365 kts | 263° |
| 2026-05-08 00:38 | 43.05502 | -77.18096 | 31925 ft | 365 kts | 263° |
| 2026-05-08 00:39 | 43.05010 | -77.25000 | 31935 ft | 365 kts | 263° |
| 2026-05-08 00:39 | 43.04513 | -77.31920 | 31925 ft | 366 kts | 263° |
| 2026-05-08 00:40 | 43.04013 | -77.38826 | 31922 ft | 368 kts | 263° |
| 2026-05-08 00:40 | 43.03504 | -77.45789 | 31927 ft | 368 kts | 263° |
| 2026-05-08 00:41 | 43.02990 | -77.52759 | 31919 ft | 369 kts | 263° |
| 2026-05-08 00:41 | 43.02472 | -77.59740 | 31950 ft | 369 kts | 263° |
| 2026-05-08 00:42 | 43.01948 | -77.66736 | 31927 ft | 371 kts | 263° |
| 2026-05-08 00:42 | 43.01417 | -77.73766 | 31921 ft | 372 kts | 263° |
| 2026-05-08 00:42 | 43.01148 | -77.77295 | 31586 ft | 374 kts | 263° |
| 2026-05-08 00:43 | 43.00883 | -77.80781 | 31164 ft | 366 kts | 263° |
| 2026-05-08 00:43 | 43.00621 | -77.84205 | 30726 ft | 360 kts | 263° |
| 2026-05-08 00:43 | 43.00362 | -77.87576 | 30242 ft | 354 kts | 263° |
| 2026-05-08 00:43 | 43.00104 | -77.90907 | 29683 ft | 350 kts | 263° |
| 2026-05-08 00:44 | 42.99850 | -77.94195 | 29147 ft | 344 kts | 263° |
| 2026-05-08 00:44 | 42.99602 | -77.97378 | 28632 ft | 339 kts | 263° |
| 2026-05-08 00:44 | 42.99354 | -78.00544 | 28166 ft | 332 kts | 263° |
| 2026-05-08 00:44 | 42.99110 | -78.03665 | 27689 ft | 327 kts | 263° |
| 2026-05-08 00:45 | 42.98868 | -78.06736 | 27215 ft | 323 kts | 263° |
| 2026-05-08 00:45 | 42.98628 | -78.09776 | 26751 ft | 320 kts | 263° |
| 2026-05-08 00:45 | 42.98389 | -78.12798 | 26274 ft | 320 kts | 263° |
| 2026-05-08 00:45 | 42.98149 | -78.15816 | 25814 ft | 320 kts | 263° |
| 2026-05-08 00:46 | 42.97907 | -78.18841 | 25336 ft | 319 kts | 263° |
| 2026-05-08 00:46 | 42.97670 | -78.21806 | 24885 ft | 318 kts | 263° |
| 2026-05-08 00:46 | 42.97429 | -78.24811 | 24432 ft | 319 kts | 263° |
| 2026-05-08 00:46 | 42.97186 | -78.27826 | 23973 ft | 321 kts | 263° |
| 2026-05-08 00:47 | 42.96939 | -78.30886 | 23530 ft | 330 kts | 263° |
| 2026-05-08 00:47 | 42.96684 | -78.34035 | 22960 ft | 335 kts | 263° |
| 2026-05-08 00:47 | 42.96428 | -78.37182 | 22457 ft | 331 kts | 263° |
| 2026-05-08 00:47 | 42.96174 | -78.40288 | 21988 ft | 326 kts | 263° |
| 2026-05-08 00:48 | 42.95924 | -78.43341 | 21536 ft | 322 kts | 263° |
| 2026-05-08 00:48 | 42.95676 | -78.46369 | 21094 ft | 318 kts | 263° |
| 2026-05-08 00:48 | 42.95430 | -78.49350 | 20638 ft | 315 kts | 263° |
| 2026-05-08 00:48 | 42.95186 | -78.52300 | 20201 ft | 311 kts | 263° |
| 2026-05-08 00:49 | 42.94943 | -78.55225 | 19751 ft | 309 kts | 263° |
| 2026-05-08 00:49 | 42.94702 | -78.58125 | 19317 ft | 306 kts | 263° |
| 2026-05-08 00:49 | 42.94465 | -78.60970 | 18888 ft | 304 kts | 263° |
| 2026-05-08 00:49 | 42.94227 | -78.63824 | 18447 ft | 302 kts | 263° |
| 2026-05-08 00:50 | 42.93988 | -78.66668 | 17994 ft | 301 kts | 263° |
| 2026-05-08 00:50 | 42.93750 | -78.69492 | 17525 ft | 299 kts | 263° |
| 2026-05-08 00:50 | 42.93654 | -78.72296 | 17124 ft | 296 kts | 277° |
| 2026-05-08 00:50 | 42.94254 | -78.74968 | 16922 ft | 294 kts | 292° |
| 2026-05-08 00:51 | 42.95370 | -78.77361 | 16715 ft | 309 kts | 304° |
| 2026-05-08 00:51 | 42.96754 | -78.79678 | 16502 ft | 319 kts | 307° |
| 2026-05-08 00:51 | 42.98198 | -78.82013 | 16279 ft | 322 kts | 307° |
| 2026-05-08 00:51 | 42.99637 | -78.84335 | 16058 ft | 319 kts | 307° |
| 2026-05-08 00:52 | 43.01058 | -78.86648 | 15850 ft | 316 kts | 307° |
| 2026-05-08 00:52 | 43.02459 | -78.88946 | 15645 ft | 314 kts | 306° |
| 2026-05-08 00:52 | 43.03852 | -78.91247 | 15436 ft | 313 kts | 306° |
| 2026-05-08 00:52 | 43.05237 | -78.93545 | 15250 ft | 313 kts | 306° |
| 2026-05-08 00:53 | 43.06616 | -78.95838 | 15054 ft | 312 kts | 306° |
| 2026-05-08 00:53 | 43.07995 | -78.98135 | 14865 ft | 312 kts | 306° |
| 2026-05-08 00:53 | 43.09374 | -79.00434 | 14655 ft | 313 kts | 306° |
| 2026-05-08 00:53 | 43.10756 | -79.02738 | 14474 ft | 313 kts | 306° |
| 2026-05-08 00:54 | 43.12121 | -79.05018 | 14275 ft | 314 kts | 306° |
| 2026-05-08 00:54 | 43.13509 | -79.07337 | 14085 ft | 315 kts | 306° |
| 2026-05-08 00:54 | 43.14917 | -79.09690 | 13877 ft | 316 kts | 306° |
| 2026-05-08 00:54 | 43.16309 | -79.12017 | 13665 ft | 316 kts | 306° |
| 2026-05-08 00:55 | 43.17699 | -79.14344 | 13443 ft | 315 kts | 306° |
| 2026-05-08 00:55 | 43.19065 | -79.16631 | 13230 ft | 314 kts | 306° |
| 2026-05-08 00:55 | 43.20444 | -79.18943 | 13031 ft | 312 kts | 306° |
| 2026-05-08 00:55 | 43.21815 | -79.21242 | 12825 ft | 310 kts | 306° |
| 2026-05-08 00:56 | 43.23173 | -79.23523 | 12630 ft | 308 kts | 306° |
| 2026-05-08 00:56 | 43.24526 | -79.25796 | 12439 ft | 306 kts | 306° |
| 2026-05-08 00:56 | 43.25872 | -79.28058 | 12235 ft | 305 kts | 306° |
| 2026-05-08 00:56 | 43.27208 | -79.30307 | 12079 ft | 304 kts | 305° |
| 2026-05-08 00:57 | 43.28441 | -79.32659 | 12024 ft | 302 kts | 301° |
| 2026-05-08 00:57 | 43.29582 | -79.35030 | 12005 ft | 293 kts | 300° |
| 2026-05-08 00:57 | 43.30673 | -79.37319 | 11999 ft | 282 kts | 300° |
| 2026-05-08 00:57 | 43.31732 | -79.39540 | 11955 ft | 275 kts | 300° |
| 2026-05-08 00:58 | 43.32782 | -79.41743 | 11626 ft | 275 kts | 300° |
| 2026-05-08 00:58 | 43.33830 | -79.43950 | 11230 ft | 276 kts | 300° |
| 2026-05-08 00:58 | 43.34871 | -79.46151 | 10900 ft | 274 kts | 300° |
| 2026-05-08 00:58 | 43.35907 | -79.48340 | 10557 ft | 272 kts | 300° |
| 2026-05-08 00:59 | 43.36923 | -79.50489 | 10232 ft | 271 kts | 300° |
| 2026-05-08 00:59 | 43.37946 | -79.52659 | 9902 ft | 269 kts | 300° |
| 2026-05-08 00:59 | 43.38958 | -79.54815 | 9544 ft | 268 kts | 300° |
| 2026-05-08 00:59 | 43.39965 | -79.56962 | 9166 ft | 267 kts | 301° |
| 2026-05-08 01:00 | 43.41318 | -79.58693 | 8837 ft | 272 kts | 331° |
| 2026-05-08 01:00 | 43.43177 | -79.59204 | 8593 ft | 276 kts | 356° |
| 2026-05-08 01:00 | 43.45077 | -79.58829 | 8326 ft | 279 kts | 14° |
| 2026-05-08 01:00 | 43.46815 | -79.57629 | 8100 ft | 278 kts | 27° |
| 2026-05-08 01:01 | 43.48431 | -79.56253 | 8014 ft | 269 kts | 28° |
| 2026-05-08 01:01 | 43.49980 | -79.54903 | 7996 ft | 257 kts | 28° |
| 2026-05-08 01:01 | 43.51457 | -79.53616 | 7984 ft | 246 kts | 28° |
| 2026-05-08 01:01 | 43.52884 | -79.52378 | 7994 ft | 240 kts | 27° |
| 2026-05-08 01:02 | 43.54298 | -79.51158 | 8004 ft | 240 kts | 27° |
| 2026-05-08 01:02 | 43.55722 | -79.49933 | 8006 ft | 244 kts | 28° |
| 2026-05-08 01:02 | 43.57179 | -79.48683 | 7873 ft | 248 kts | 28° |
| 2026-05-08 01:02 | 43.58646 | -79.47422 | 7721 ft | 247 kts | 28° |
| 2026-05-08 01:03 | 43.60096 | -79.46176 | 7544 ft | 243 kts | 28° |
| 2026-05-08 01:03 | 43.61518 | -79.44952 | 7382 ft | 239 kts | 28° |
| 2026-05-08 01:03 | 43.62927 | -79.43741 | 7241 ft | 238 kts | 28° |
| 2026-05-08 01:03 | 43.64334 | -79.42532 | 7097 ft | 238 kts | 28° |
| 2026-05-08 01:04 | 43.65735 | -79.41327 | 6917 ft | 236 kts | 28° |
| 2026-05-08 01:04 | 43.67131 | -79.40127 | 6680 ft | 236 kts | 28° |
| 2026-05-08 01:04 | 43.68520 | -79.38931 | 6474 ft | 235 kts | 28° |
| 2026-05-08 01:04 | 43.69905 | -79.37738 | 6290 ft | 232 kts | 28° |
| 2026-05-08 01:05 | 43.71242 | -79.36584 | 6144 ft | 223 kts | 28° |
| 2026-05-08 01:05 | 43.72552 | -79.35451 | 5870 ft | 222 kts | 30° |
| 2026-05-08 01:05 | 43.73710 | -79.34024 | 5634 ft | 224 kts | 45° |
| 2026-05-08 01:05 | 43.74736 | -79.32453 | 5403 ft | 223 kts | 45° |
| 2026-05-08 01:06 | 43.75787 | -79.30885 | 5162 ft | 221 kts | 44° |
| 2026-05-08 01:06 | 43.76868 | -79.29395 | 4926 ft | 217 kts | 31° |
| 2026-05-08 01:06 | 43.78249 | -79.28754 | 4572 ft | 208 kts | 355° |
| 2026-05-08 01:06 | 43.79583 | -79.29344 | 4186 ft | 202 kts | 320° |
| 2026-05-08 01:07 | 43.80396 | -79.30887 | 3827 ft | 201 kts | 292° |
| 2026-05-08 01:07 | 43.80811 | -79.32728 | 3568 ft | 201 kts | 273° |
| 2026-05-08 01:07 | 43.80671 | -79.34654 | 3315 ft | 202 kts | 261° |
| 2026-05-08 01:07 | 43.80416 | -79.36569 | 3081 ft | 202 kts | 260° |
| 2026-05-08 01:08 | 43.80152 | -79.38499 | 3030 ft | 205 kts | 260° |
| 2026-05-08 01:08 | 43.79884 | -79.40444 | 3007 ft | 205 kts | 259° |
| 2026-05-08 01:08 | 43.79430 | -79.42281 | 2991 ft | 202 kts | 234° |
| 2026-05-08 01:08 | 43.78486 | -79.43687 | 3007 ft | 199 kts | 229° |
| 2026-05-08 01:09 | 43.77550 | -79.45115 | 3009 ft | 201 kts | 229° |
| 2026-05-08 01:09 | 43.76619 | -79.46497 | 2993 ft | 189 kts | 229° |
| 2026-05-08 01:09 | 43.75747 | -79.47766 | 2956 ft | 176 kts | 229° |
| 2026-05-08 01:09 | 43.74915 | -79.48974 | 2768 ft | 170 kts | 229° |
| 2026-05-08 01:10 | 43.74129 | -79.50115 | 2541 ft | 157 kts | 229° |
| 2026-05-08 01:10 | 43.73426 | -79.51136 | 2352 ft | 139 kts | 229° |
| 2026-05-08 01:10 | 43.72789 | -79.52062 | 2146 ft | 128 kts | 229° |
| 2026-05-08 01:10 | 43.72174 | -79.52958 | 1992 ft | 130 kts | 229° |
| 2026-05-08 01:11 | 43.71540 | -79.53880 | 1804 ft | 133 kts | 229° |
| 2026-05-08 01:11 | 43.70904 | -79.54804 | 1626 ft | 132 kts | 229° |
| 2026-05-08 01:11 | 43.70272 | -79.55720 | 1430 ft | 133 kts | 229° |
| 2026-05-08 01:11 | 43.69638 | -79.56646 | 1224 ft | 133 kts | 228° |
| 2026-05-08 01:12 | 43.69002 | -79.57569 | 1033 ft | 132 kts | 228° |
| 2026-05-08 01:12 | 43.68371 | -79.58487 | 854 ft | 133 kts | 227° |
| 2026-05-08 01:12 | 43.67721 | -79.59433 | 684 ft | 138 kts | 227° |
| 2026-05-08 01:12 | 43.67066 | -79.60391 | 556 ft | 131 kts | 226° |
| 2026-05-08 01:13 | 43.66705 | -79.60917 | 565 ft | 91 kts | 226° |
| 2026-05-08 01:13 | 43.66432 | -79.61377 | 555 ft | 39 kts | 255° |
| 2026-05-08 01:13 | 43.66376 | -79.61613 | 564 ft | 15 kts | 256° |
| 2026-05-08 01:13 | 43.66382 | -79.61691 | 565 ft | 1 kts | 299° |
| 2026-05-08 01:14 | 43.66384 | -79.61694 | 565 ft | 3 kts | 300° |
| 2026-05-08 01:14 | 43.66425 | -79.61759 | 560 ft | 12 kts | 315° |
| 2026-05-08 01:14 | 43.66486 | -79.61836 | 570 ft | 13 kts | 317° |
| 2026-05-08 01:15 | 43.66557 | -79.61928 | 557 ft | 15 kts | 317° |
| 2026-05-08 01:15 | 43.66627 | -79.62012 | 565 ft | 12 kts | 336° |
| 2026-05-08 01:15 | 43.66700 | -79.61968 | 569 ft | 12 kts | 42° |
| 2026-05-08 01:15 | 43.66760 | -79.61892 | 566 ft | 12 kts | 42° |
| 2026-05-08 01:16 | 43.66819 | -79.61818 | 565 ft | 12 kts | 43° |
| 2026-05-08 01:16 | 43.66881 | -79.61739 | 571 ft | 12 kts | 42° |
| 2026-05-08 01:16 | 43.66943 | -79.61663 | 568 ft | 12 kts | 42° |
| 2026-05-08 01:16 | 43.67008 | -79.61582 | 572 ft | 14 kts | 41° |
| 2026-05-08 01:17 | 43.67077 | -79.61493 | 568 ft | 13 kts | 43° |
| 2026-05-08 01:17 | 43.67148 | -79.61404 | 566 ft | 15 kts | 41° |
| 2026-05-08 01:17 | 43.67217 | -79.61293 | 566 ft | 16 kts | 54° |
| 2026-05-08 01:17 | 43.67303 | -79.61296 | 563 ft | 15 kts | 317° |
| 2026-05-08 01:18 | 43.67377 | -79.61392 | 561 ft | 14 kts | 317° |
| 2026-05-08 01:18 | 43.67448 | -79.61485 | 562 ft | 14 kts | 316° |
| 2026-05-08 01:18 | 43.67516 | -79.61573 | 562 ft | 13 kts | 317° |
| 2026-05-08 01:18 | 43.67581 | -79.61658 | 562 ft | 13 kts | 317° |
| 2026-05-08 01:19 | 43.67648 | -79.61744 | 562 ft | 14 kts | 316° |
| 2026-05-08 01:19 | 43.67723 | -79.61842 | 562 ft | 15 kts | 316° |
| 2026-05-08 01:19 | 43.67796 | -79.61937 | 562 ft | 14 kts | 316° |
| 2026-05-08 01:19 | 43.67866 | -79.62029 | 561 ft | 13 kts | 316° |
| 2026-05-08 01:20 | 43.67948 | -79.62082 | 565 ft | 13 kts | 338° |
| 2026-05-08 01:20 | 43.68016 | -79.62158 | 561 ft | 13 kts | 317° |
| 2026-05-08 01:20 | 43.68079 | -79.62241 | 566 ft | 12 kts | 316° |
| 2026-05-08 01:20 | 43.68141 | -79.62321 | 561 ft | 12 kts | 316° |
| 2026-05-08 01:21 | 43.68201 | -79.62399 | 563 ft | 12 kts | 317° |
| 2026-05-08 01:21 | 43.68271 | -79.62409 | 563 ft | 12 kts | 40° |
| 2026-05-08 01:21 | 43.68342 | -79.62369 | 569 ft | 11 kts | 30° |
| 2026-05-08 01:21 | 43.68408 | -79.62368 | 564 ft | 8 kts | 349° |
| 2026-05-08 01:22 | 43.68438 | -79.62377 | 565 ft | 2 kts | 349° |
| 2026-05-08 01:22 | 43.68441 | -79.62378 | 565 ft | 0 kts | 349° |